sensor_id;sensor_type;location;lat;lon;timestamp;P1;durP1;ratioP1;P2;durP2;ratioP2
24034;SDS011;12242;50.952;4.678;2022-09-03T00:00:55;2.45;;;1.27;;
24034;SDS011;12242;50.952;4.678;2022-09-03T00:03:39;2.35;;;1.10;;
24034;SDS011;12242;50.952;4.678;2022-09-03T00:06:27;2.83;;;1.38;;
24034;SDS011;12242;50.952;4.678;2022-09-03T00:09:05;3.88;;;1.20;;
24034;SDS011;12242;50.952;4.678;2022-09-03T00:11:52;2.60;;;1.17;;
24034;SDS011;12242;50.952;4.678;2022-09-03T00:15:01;2.63;;;1.17;;
24034;SDS011;12242;50.952;4.678;2022-09-03T00:17:43;2.42;;;1.30;;
24034;SDS011;12242;50.952;4.678;2022-09-03T00:20:23;2.75;;;1.15;;
24034;SDS011;12242;50.952;4.678;2022-09-03T00:23:02;2.33;;;1.00;;
24034;SDS011;12242;50.952;4.678;2022-09-03T00:28:03;2.95;;;1.08;;
24034;SDS011;12242;50.952;4.678;2022-09-03T00:30:37;1.55;;;0.98;;
24034;SDS011;12242;50.952;4.678;2022-09-03T00:33:17;2.63;;;1.27;;
24034;SDS011;12242;50.952;4.678;2022-09-03T00:35:54;2.90;;;1.35;;
24034;SDS011;12242;50.952;4.678;2022-09-03T00:38:38;2.60;;;1.23;;
24034;SDS011;12242;50.952;4.678;2022-09-03T00:41:07;2.35;;;1.23;;
24034;SDS011;12242;50.952;4.678;2022-09-03T00:46:46;5.30;;;1.00;;
24034;SDS011;12242;50.952;4.678;2022-09-03T00:52:41;2.40;;;1.00;;
24034;SDS011;12242;50.952;4.678;2022-09-03T00:55:26;3.45;;;1.17;;
24034;SDS011;12242;50.952;4.678;2022-09-03T01:00:51;7.40;;;1.27;;
24034;SDS011;12242;50.952;4.678;2022-09-03T01:03:27;1.85;;;0.90;;
24034;SDS011;12242;50.952;4.678;2022-09-03T01:06:18;2.05;;;1.00;;
24034;SDS011;12242;50.952;4.678;2022-09-03T01:09:02;5.38;;;1.27;;
24034;SDS011;12242;50.952;4.678;2022-09-03T01:30:47;2.70;;;1.20;;
24034;SDS011;12242;50.952;4.678;2022-09-03T01:36:16;2.63;;;1.13;;
24034;SDS011;12242;50.952;4.678;2022-09-03T01:38:56;2.28;;;1.05;;
24034;SDS011;12242;50.952;4.678;2022-09-03T01:47:17;1.75;;;1.20;;
24034;SDS011;12242;50.952;4.678;2022-09-03T01:50:04;4.83;;;1.10;;
24034;SDS011;12242;50.952;4.678;2022-09-03T01:52:55;1.98;;;1.20;;
24034;SDS011;12242;50.952;4.678;2022-09-03T01:55:35;2.65;;;1.10;;
24034;SDS011;12242;50.952;4.678;2022-09-03T01:58:11;4.18;;;1.05;;
24034;SDS011;12242;50.952;4.678;2022-09-03T02:01:17;3.53;;;1.17;;
24034;SDS011;12242;50.952;4.678;2022-09-03T02:03:52;1.92;;;1.05;;
24034;SDS011;12242;50.952;4.678;2022-09-03T02:06:26;3.80;;;1.30;;
24034;SDS011;12242;50.952;4.678;2022-09-03T02:08:57;2.53;;;1.13;;
24034;SDS011;12242;50.952;4.678;2022-09-03T02:11:27;1.83;;;1.05;;
24034;SDS011;12242;50.952;4.678;2022-09-03T02:13:57;2.33;;;1.08;;
24034;SDS011;12242;50.952;4.678;2022-09-03T02:16:30;3.22;;;1.35;;
24034;SDS011;12242;50.952;4.678;2022-09-03T02:19:02;6.50;;;1.10;;
24034;SDS011;12242;50.952;4.678;2022-09-03T02:21:42;1.92;;;1.13;;
24034;SDS011;12242;50.952;4.678;2022-09-03T02:24:16;3.60;;;1.23;;
24034;SDS011;12242;50.952;4.678;2022-09-03T02:26:49;4.18;;;1.20;;
24034;SDS011;12242;50.952;4.678;2022-09-03T02:29:19;3.00;;;1.23;;
24034;SDS011;12242;50.952;4.678;2022-09-03T02:31:49;2.60;;;1.23;;
24034;SDS011;12242;50.952;4.678;2022-09-03T02:34:19;6.50;;;1.35;;
24034;SDS011;12242;50.952;4.678;2022-09-03T02:36:46;4.55;;;1.27;;
24034;SDS011;12242;50.952;4.678;2022-09-03T02:39:14;3.08;;;1.20;;
24034;SDS011;12242;50.952;4.678;2022-09-03T02:41:42;5.72;;;1.40;;
24034;SDS011;12242;50.952;4.678;2022-09-03T02:44:16;2.00;;;1.08;;
24034;SDS011;12242;50.952;4.678;2022-09-03T02:47:01;2.35;;;1.25;;
24034;SDS011;12242;50.952;4.678;2022-09-03T02:49:30;2.67;;;1.10;;
24034;SDS011;12242;50.952;4.678;2022-09-03T02:52:05;1.90;;;1.02;;
24034;SDS011;12242;50.952;4.678;2022-09-03T02:54:38;2.38;;;1.10;;
24034;SDS011;12242;50.952;4.678;2022-09-03T02:57:11;1.67;;;0.85;;
24034;SDS011;12242;50.952;4.678;2022-09-03T02:59:41;2.50;;;1.20;;
24034;SDS011;12242;50.952;4.678;2022-09-03T03:02:13;2.22;;;1.13;;
24034;SDS011;12242;50.952;4.678;2022-09-03T03:04:40;2.88;;;1.00;;
24034;SDS011;12242;50.952;4.678;2022-09-03T03:07:07;3.17;;;1.20;;
24034;SDS011;12242;50.952;4.678;2022-09-03T03:09:38;2.33;;;1.00;;
24034;SDS011;12242;50.952;4.678;2022-09-03T03:12:07;2.10;;;1.20;;
24034;SDS011;12242;50.952;4.678;2022-09-03T03:14:35;2.53;;;1.02;;
24034;SDS011;12242;50.952;4.678;2022-09-03T03:17:03;2.63;;;1.10;;
24034;SDS011;12242;50.952;4.678;2022-09-03T03:19:31;3.10;;;1.30;;
24034;SDS011;12242;50.952;4.678;2022-09-03T03:21:59;2.55;;;1.27;;
24034;SDS011;12242;50.952;4.678;2022-09-03T03:24:26;5.55;;;1.40;;
24034;SDS011;12242;50.952;4.678;2022-09-03T03:26:56;3.50;;;1.50;;
24034;SDS011;12242;50.952;4.678;2022-09-03T03:29:24;4.45;;;1.27;;
24034;SDS011;12242;50.952;4.678;2022-09-03T03:31:54;2.55;;;1.30;;
24034;SDS011;12242;50.952;4.678;2022-09-03T03:34:23;3.20;;;1.02;;
24034;SDS011;12242;50.952;4.678;2022-09-03T03:36:56;3.05;;;1.38;;
24034;SDS011;12242;50.952;4.678;2022-09-03T03:39:23;3.55;;;1.17;;
24034;SDS011;12242;50.952;4.678;2022-09-03T03:41:54;5.88;;;1.40;;
24034;SDS011;12242;50.952;4.678;2022-09-03T03:44:22;2.15;;;1.17;;
24034;SDS011;12242;50.952;4.678;2022-09-03T03:46:55;2.08;;;1.15;;
24034;SDS011;12242;50.952;4.678;2022-09-03T03:49:22;4.55;;;1.10;;
24034;SDS011;12242;50.952;4.678;2022-09-03T03:51:53;3.95;;;1.38;;
24034;SDS011;12242;50.952;4.678;2022-09-03T03:54:23;1.58;;;0.95;;
24034;SDS011;12242;50.952;4.678;2022-09-03T03:56:53;2.25;;;1.33;;
24034;SDS011;12242;50.952;4.678;2022-09-03T03:59:22;7.63;;;1.30;;
24034;SDS011;12242;50.952;4.678;2022-09-03T04:01:49;4.25;;;1.50;;
24034;SDS011;12242;50.952;4.678;2022-09-03T04:04:16;3.45;;;1.52;;
24034;SDS011;12242;50.952;4.678;2022-09-03T04:06:47;2.55;;;1.48;;
24034;SDS011;12242;50.952;4.678;2022-09-03T04:09:15;5.28;;;1.40;;
24034;SDS011;12242;50.952;4.678;2022-09-03T04:11:42;2.95;;;1.20;;
24034;SDS011;12242;50.952;4.678;2022-09-03T04:14:10;4.07;;;1.30;;
24034;SDS011;12242;50.952;4.678;2022-09-03T04:16:37;3.25;;;1.25;;
24034;SDS011;12242;50.952;4.678;2022-09-03T04:19:07;2.55;;;1.20;;
24034;SDS011;12242;50.952;4.678;2022-09-03T04:21:37;5.60;;;1.30;;
24034;SDS011;12242;50.952;4.678;2022-09-03T04:24:05;5.07;;;1.23;;
24034;SDS011;12242;50.952;4.678;2022-09-03T04:26:32;2.85;;;1.20;;
24034;SDS011;12242;50.952;4.678;2022-09-03T04:29:04;2.03;;;1.23;;
24034;SDS011;12242;50.952;4.678;2022-09-03T04:31:35;2.85;;;1.35;;
24034;SDS011;12242;50.952;4.678;2022-09-03T04:34:26;2.60;;;1.23;;
24034;SDS011;12242;50.952;4.678;2022-09-03T04:36:53;4.75;;;1.30;;
24034;SDS011;12242;50.952;4.678;2022-09-03T04:39:26;3.47;;;1.27;;
24034;SDS011;12242;50.952;4.678;2022-09-03T04:41:53;2.30;;;1.27;;
24034;SDS011;12242;50.952;4.678;2022-09-03T04:44:20;2.95;;;1.17;;
24034;SDS011;12242;50.952;4.678;2022-09-03T04:46:52;2.60;;;1.30;;
24034;SDS011;12242;50.952;4.678;2022-09-03T04:49:20;2.83;;;1.27;;
24034;SDS011;12242;50.952;4.678;2022-09-03T04:51:50;7.80;;;1.35;;
24034;SDS011;12242;50.952;4.678;2022-09-03T04:54:18;3.63;;;1.33;;
24034;SDS011;12242;50.952;4.678;2022-09-03T04:56:45;3.72;;;1.45;;
24034;SDS011;12242;50.952;4.678;2022-09-03T04:59:12;2.25;;;1.20;;
24034;SDS011;12242;50.952;4.678;2022-09-03T05:01:39;3.60;;;1.30;;
24034;SDS011;12242;50.952;4.678;2022-09-03T05:04:08;1.95;;;1.13;;
24034;SDS011;12242;50.952;4.678;2022-09-03T05:06:36;2.53;;;1.40;;
24034;SDS011;12242;50.952;4.678;2022-09-03T05:09:04;4.15;;;1.38;;
24034;SDS011;12242;50.952;4.678;2022-09-03T05:11:32;2.50;;;1.23;;
24034;SDS011;12242;50.952;4.678;2022-09-03T05:13:59;4.30;;;1.30;;
24034;SDS011;12242;50.952;4.678;2022-09-03T05:16:27;1.73;;;1.00;;
24034;SDS011;12242;50.952;4.678;2022-09-03T05:18:57;2.45;;;1.10;;
24034;SDS011;12242;50.952;4.678;2022-09-03T05:21:25;2.35;;;1.20;;
24034;SDS011;12242;50.952;4.678;2022-09-03T05:23:54;4.00;;;1.20;;
24034;SDS011;12242;50.952;4.678;2022-09-03T05:26:23;2.28;;;1.17;;
24034;SDS011;12242;50.952;4.678;2022-09-03T05:28:53;5.35;;;1.40;;
24034;SDS011;12242;50.952;4.678;2022-09-03T05:31:22;1.85;;;1.00;;
24034;SDS011;12242;50.952;4.678;2022-09-03T05:33:55;4.40;;;1.05;;
24034;SDS011;12242;50.952;4.678;2022-09-03T05:36:26;3.05;;;1.30;;
24034;SDS011;12242;50.952;4.678;2022-09-03T05:38:55;3.75;;;1.33;;
24034;SDS011;12242;50.952;4.678;2022-09-03T05:41:27;2.67;;;1.10;;
24034;SDS011;12242;50.952;4.678;2022-09-03T05:43:55;2.00;;;1.10;;
24034;SDS011;12242;50.952;4.678;2022-09-03T05:46:26;3.30;;;1.20;;
24034;SDS011;12242;50.952;4.678;2022-09-03T05:48:59;2.60;;;1.00;;
24034;SDS011;12242;50.952;4.678;2022-09-03T05:51:28;2.63;;;1.20;;
24034;SDS011;12242;50.952;4.678;2022-09-03T05:53:56;4.95;;;1.48;;
24034;SDS011;12242;50.952;4.678;2022-09-03T05:56:25;6.57;;;1.40;;
24034;SDS011;12242;50.952;4.678;2022-09-03T05:58:58;5.85;;;1.33;;
24034;SDS011;12242;50.952;4.678;2022-09-03T06:01:29;2.50;;;1.00;;
24034;SDS011;12242;50.952;4.678;2022-09-03T06:04:04;2.75;;;1.10;;
24034;SDS011;12242;50.952;4.678;2022-09-03T06:06:36;4.97;;;1.30;;
24034;SDS011;12242;50.952;4.678;2022-09-03T06:09:15;2.35;;;1.17;;
24034;SDS011;12242;50.952;4.678;2022-09-03T06:11:45;4.13;;;1.20;;
24034;SDS011;12242;50.952;4.678;2022-09-03T06:14:19;1.83;;;0.88;;
24034;SDS011;12242;50.952;4.678;2022-09-03T06:16:49;3.33;;;1.08;;
24034;SDS011;12242;50.952;4.678;2022-09-03T06:19:18;6.43;;;1.00;;
24034;SDS011;12242;50.952;4.678;2022-09-03T06:21:46;5.25;;;1.38;;
24034;SDS011;12242;50.952;4.678;2022-09-03T06:24:17;1.52;;;1.05;;
24034;SDS011;12242;50.952;4.678;2022-09-03T06:26:53;5.15;;;1.08;;
24034;SDS011;12242;50.952;4.678;2022-09-03T06:29:22;2.95;;;1.13;;
24034;SDS011;12242;50.952;4.678;2022-09-03T06:31:49;2.70;;;1.08;;
24034;SDS011;12242;50.952;4.678;2022-09-03T06:34:16;3.08;;;1.13;;
24034;SDS011;12242;50.952;4.678;2022-09-03T06:36:44;1.67;;;0.93;;
24034;SDS011;12242;50.952;4.678;2022-09-03T06:39:12;3.15;;;1.15;;
24034;SDS011;12242;50.952;4.678;2022-09-03T06:41:41;4.00;;;1.30;;
24034;SDS011;12242;50.952;4.678;2022-09-03T06:44:09;4.25;;;1.23;;
24034;SDS011;12242;50.952;4.678;2022-09-03T06:46:38;3.05;;;1.10;;
24034;SDS011;12242;50.952;4.678;2022-09-03T06:49:09;2.47;;;1.30;;
24034;SDS011;12242;50.952;4.678;2022-09-03T06:51:39;3.03;;;1.30;;
24034;SDS011;12242;50.952;4.678;2022-09-03T06:54:11;3.53;;;1.40;;
24034;SDS011;12242;50.952;4.678;2022-09-03T06:56:39;4.97;;;1.17;;
24034;SDS011;12242;50.952;4.678;2022-09-03T06:59:12;2.38;;;1.20;;
24034;SDS011;12242;50.952;4.678;2022-09-03T07:01:41;3.05;;;1.27;;
24034;SDS011;12242;50.952;4.678;2022-09-03T07:04:12;2.55;;;1.20;;
24034;SDS011;12242;50.952;4.678;2022-09-03T07:06:46;2.15;;;1.13;;
24034;SDS011;12242;50.952;4.678;2022-09-03T07:09:13;2.28;;;1.00;;
24034;SDS011;12242;50.952;4.678;2022-09-03T07:11:43;3.03;;;1.35;;
24034;SDS011;12242;50.952;4.678;2022-09-03T07:14:17;2.15;;;1.00;;
24034;SDS011;12242;50.952;4.678;2022-09-03T07:16:47;5.10;;;1.25;;
24034;SDS011;12242;50.952;4.678;2022-09-03T07:19:17;3.10;;;1.27;;
24034;SDS011;12242;50.952;4.678;2022-09-03T07:21:45;2.10;;;1.10;;
24034;SDS011;12242;50.952;4.678;2022-09-03T07:24:17;1.85;;;0.90;;
24034;SDS011;12242;50.952;4.678;2022-09-03T07:26:45;5.40;;;1.02;;
24034;SDS011;12242;50.952;4.678;2022-09-03T07:29:14;3.42;;;1.08;;
24034;SDS011;12242;50.952;4.678;2022-09-03T07:31:46;5.80;;;1.00;;
24034;SDS011;12242;50.952;4.678;2022-09-03T07:34:19;4.85;;;1.10;;
24034;SDS011;12242;50.952;4.678;2022-09-03T07:36:51;1.73;;;1.00;;
24034;SDS011;12242;50.952;4.678;2022-09-03T07:39:19;2.58;;;1.10;;
24034;SDS011;12242;50.952;4.678;2022-09-03T07:41:47;2.95;;;0.90;;
24034;SDS011;12242;50.952;4.678;2022-09-03T07:44:16;2.30;;;1.02;;
24034;SDS011;12242;50.952;4.678;2022-09-03T07:46:46;4.10;;;1.25;;
24034;SDS011;12242;50.952;4.678;2022-09-03T07:49:17;2.97;;;1.20;;
24034;SDS011;12242;50.952;4.678;2022-09-03T07:51:46;3.38;;;1.27;;
24034;SDS011;12242;50.952;4.678;2022-09-03T07:54:16;2.15;;;1.15;;
24034;SDS011;12242;50.952;4.678;2022-09-03T07:56:43;6.43;;;1.15;;
24034;SDS011;12242;50.952;4.678;2022-09-03T07:59:11;4.13;;;1.23;;
24034;SDS011;12242;50.952;4.678;2022-09-03T08:01:39;4.13;;;1.10;;
24034;SDS011;12242;50.952;4.678;2022-09-03T08:04:09;6.18;;;1.30;;
24034;SDS011;12242;50.952;4.678;2022-09-03T08:06:37;6.18;;;1.17;;
24034;SDS011;12242;50.952;4.678;2022-09-03T08:09:07;2.78;;;1.15;;
24034;SDS011;12242;50.952;4.678;2022-09-03T08:11:38;2.08;;;1.10;;
24034;SDS011;12242;50.952;4.678;2022-09-03T08:14:10;2.30;;;1.00;;
24034;SDS011;12242;50.952;4.678;2022-09-03T08:16:39;4.30;;;1.00;;
24034;SDS011;12242;50.952;4.678;2022-09-03T08:19:10;6.45;;;1.38;;
24034;SDS011;12242;50.952;4.678;2022-09-03T08:21:39;3.72;;;1.25;;
24034;SDS011;12242;50.952;4.678;2022-09-03T08:24:10;2.78;;;1.10;;
24034;SDS011;12242;50.952;4.678;2022-09-03T08:26:40;1.75;;;1.10;;
24034;SDS011;12242;50.952;4.678;2022-09-03T08:29:17;2.67;;;1.05;;
24034;SDS011;12242;50.952;4.678;2022-09-03T08:31:46;5.90;;;1.20;;
24034;SDS011;12242;50.952;4.678;2022-09-03T08:34:14;6.70;;;1.27;;
24034;SDS011;12242;50.952;4.678;2022-09-03T08:36:43;4.28;;;1.25;;
24034;SDS011;12242;50.952;4.678;2022-09-03T08:39:12;3.35;;;1.55;;
24034;SDS011;12242;50.952;4.678;2022-09-03T08:47:04;2.53;;;1.30;;
24034;SDS011;12242;50.952;4.678;2022-09-03T08:52:32;4.32;;;1.30;;
24034;SDS011;12242;50.952;4.678;2022-09-03T09:06:57;3.13;;;1.08;;
24034;SDS011;12242;50.952;4.678;2022-09-03T09:09:39;3.05;;;1.30;;
24034;SDS011;12242;50.952;4.678;2022-09-03T09:15:12;3.88;;;1.70;;
24034;SDS011;12242;50.952;4.678;2022-09-03T09:18:12;4.45;;;1.52;;
24034;SDS011;12242;50.952;4.678;2022-09-03T09:21:10;4.15;;;1.52;;
24034;SDS011;12242;50.952;4.678;2022-09-03T09:23:50;4.07;;;1.75;;
24034;SDS011;12242;50.952;4.678;2022-09-03T09:26:22;3.30;;;1.40;;
24034;SDS011;12242;50.952;4.678;2022-09-03T09:28:53;2.65;;;1.50;;
24034;SDS011;12242;50.952;4.678;2022-09-03T09:31:30;4.13;;;1.50;;
24034;SDS011;12242;50.952;4.678;2022-09-03T09:34:03;2.30;;;1.50;;
24034;SDS011;12242;50.952;4.678;2022-09-03T09:36:51;4.28;;;1.70;;
24034;SDS011;12242;50.952;4.678;2022-09-03T09:39:22;3.30;;;1.45;;
24034;SDS011;12242;50.952;4.678;2022-09-03T09:41:56;2.22;;;1.40;;
24034;SDS011;12242;50.952;4.678;2022-09-03T09:44:31;4.97;;;1.40;;
24034;SDS011;12242;50.952;4.678;2022-09-03T09:47:09;6.53;;;1.77;;
24034;SDS011;12242;50.952;4.678;2022-09-03T09:49:50;3.70;;;2.00;;
24034;SDS011;12242;50.952;4.678;2022-09-03T09:52:19;5.30;;;1.80;;
24034;SDS011;12242;50.952;4.678;2022-09-03T09:54:52;4.13;;;1.50;;
24034;SDS011;12242;50.952;4.678;2022-09-03T09:57:33;3.17;;;1.50;;
24034;SDS011;12242;50.952;4.678;2022-09-03T10:00:02;5.22;;;1.70;;
24034;SDS011;12242;50.952;4.678;2022-09-03T10:02:36;3.25;;;1.60;;
24034;SDS011;12242;50.952;4.678;2022-09-03T10:05:12;8.85;;;1.90;;
24034;SDS011;12242;50.952;4.678;2022-09-03T10:07:56;6.35;;;1.80;;
24034;SDS011;12242;50.952;4.678;2022-09-03T10:10:26;3.40;;;2.10;;
24034;SDS011;12242;50.952;4.678;2022-09-03T10:13:05;2.80;;;1.70;;
24034;SDS011;12242;50.952;4.678;2022-09-03T10:18:18;2.97;;;1.60;;
24034;SDS011;12242;50.952;4.678;2022-09-03T10:21:11;2.70;;;1.52;;
24034;SDS011;12242;50.952;4.678;2022-09-03T10:26:41;5.45;;;1.80;;
24034;SDS011;12242;50.952;4.678;2022-09-03T10:29:14;3.67;;;1.92;;
24034;SDS011;12242;50.952;4.678;2022-09-03T10:35:15;4.35;;;1.95;;
24034;SDS011;12242;50.952;4.678;2022-09-03T10:38:04;3.60;;;1.90;;
24034;SDS011;12242;50.952;4.678;2022-09-03T10:46:12;5.88;;;1.92;;
24034;SDS011;12242;50.952;4.678;2022-09-03T10:57:06;5.25;;;1.83;;
24034;SDS011;12242;50.952;4.678;2022-09-03T11:02:44;3.35;;;2.00;;
24034;SDS011;12242;50.952;4.678;2022-09-03T11:05:59;3.65;;;1.65;;
24034;SDS011;12242;50.952;4.678;2022-09-03T11:11:49;4.20;;;2.30;;
24034;SDS011;12242;50.952;4.678;2022-09-03T11:14:44;5.00;;;1.98;;
24034;SDS011;12242;50.952;4.678;2022-09-03T11:17:24;5.47;;;2.63;;
24034;SDS011;12242;50.952;4.678;2022-09-03T11:20:01;4.15;;;2.20;;
24034;SDS011;12242;50.952;4.678;2022-09-03T11:22:47;5.63;;;2.00;;
24034;SDS011;12242;50.952;4.678;2022-09-03T11:25:18;9.55;;;2.65;;
24034;SDS011;12242;50.952;4.678;2022-09-03T11:27:53;3.95;;;2.10;;
24034;SDS011;12242;50.952;4.678;2022-09-03T11:30:38;3.67;;;2.08;;
24034;SDS011;12242;50.952;4.678;2022-09-03T11:33:23;3.08;;;1.83;;
24034;SDS011;12242;50.952;4.678;2022-09-03T11:35:55;5.82;;;2.00;;
24034;SDS011;12242;50.952;4.678;2022-09-03T11:38:27;4.10;;;2.20;;
24034;SDS011;12242;50.952;4.678;2022-09-03T11:43:33;4.95;;;2.40;;
24034;SDS011;12242;50.952;4.678;2022-09-03T11:46:25;3.92;;;2.08;;
24034;SDS011;12242;50.952;4.678;2022-09-03T11:48:52;4.43;;;1.98;;
24034;SDS011;12242;50.952;4.678;2022-09-03T11:51:55;4.80;;;2.30;;
24034;SDS011;12242;50.952;4.678;2022-09-03T11:54:26;3.70;;;1.98;;
24034;SDS011;12242;50.952;4.678;2022-09-03T11:57:21;5.00;;;2.25;;
24034;SDS011;12242;50.952;4.678;2022-09-03T11:59:52;4.95;;;1.95;;
24034;SDS011;12242;50.952;4.678;2022-09-03T12:02:29;4.72;;;2.25;;
24034;SDS011;12242;50.952;4.678;2022-09-03T12:16:20;4.03;;;1.90;;
24034;SDS011;12242;50.952;4.678;2022-09-03T12:22:03;4.78;;;2.03;;
24034;SDS011;12242;50.952;4.678;2022-09-03T12:24:31;2.92;;;1.77;;
24034;SDS011;12242;50.952;4.678;2022-09-03T12:27:04;3.33;;;1.77;;
24034;SDS011;12242;50.952;4.678;2022-09-03T12:29:32;3.80;;;2.30;;
24034;SDS011;12242;50.952;4.678;2022-09-03T12:32:05;4.07;;;2.30;;
24034;SDS011;12242;50.952;4.678;2022-09-03T12:34:34;3.22;;;2.10;;
24034;SDS011;12242;50.952;4.678;2022-09-03T12:37:01;3.08;;;1.83;;
24034;SDS011;12242;50.952;4.678;2022-09-03T12:39:29;4.05;;;2.28;;
24034;SDS011;12242;50.952;4.678;2022-09-03T12:42:22;3.75;;;2.00;;
24034;SDS011;12242;50.952;4.678;2022-09-03T12:44:54;4.35;;;2.30;;
24034;SDS011;12242;50.952;4.678;2022-09-03T12:47:22;3.47;;;1.90;;
24034;SDS011;12242;50.952;4.678;2022-09-03T12:50:04;3.55;;;2.10;;
24034;SDS011;12242;50.952;4.678;2022-09-03T12:52:53;4.70;;;2.17;;
24034;SDS011;12242;50.952;4.678;2022-09-03T12:58:09;4.30;;;2.33;;
24034;SDS011;12242;50.952;4.678;2022-09-03T13:00:48;4.45;;;2.40;;
24034;SDS011;12242;50.952;4.678;2022-09-03T13:03:21;4.82;;;2.50;;
24034;SDS011;12242;50.952;4.678;2022-09-03T13:05:58;2.67;;;1.70;;
24034;SDS011;12242;50.952;4.678;2022-09-03T13:08:43;3.42;;;1.98;;
24034;SDS011;12242;50.952;4.678;2022-09-03T13:11:16;4.70;;;2.30;;
24034;SDS011;12242;50.952;4.678;2022-09-03T13:13:52;4.47;;;2.13;;
24034;SDS011;12242;50.952;4.678;2022-09-03T13:30:15;4.25;;;1.80;;
24034;SDS011;12242;50.952;4.678;2022-09-03T13:32:56;4.20;;;1.98;;
24034;SDS011;12242;50.952;4.678;2022-09-03T13:41:14;3.33;;;1.67;;
24034;SDS011;12242;50.952;4.678;2022-09-03T13:43:47;3.58;;;1.77;;
24034;SDS011;12242;50.952;4.678;2022-09-03T13:55:47;3.85;;;2.00;;
24034;SDS011;12242;50.952;4.678;2022-09-03T13:58:25;2.28;;;1.52;;
24034;SDS011;12242;50.952;4.678;2022-09-03T14:01:16;6.10;;;2.05;;
24034;SDS011;12242;50.952;4.678;2022-09-03T14:03:55;5.22;;;1.50;;
24034;SDS011;12242;50.952;4.678;2022-09-03T14:09:29;3.75;;;1.50;;
24034;SDS011;12242;50.952;4.678;2022-09-03T14:12:09;2.83;;;1.52;;
24034;SDS011;12242;50.952;4.678;2022-09-03T14:17:29;2.10;;;1.42;;
24034;SDS011;12242;50.952;4.678;2022-09-03T14:20:18;3.30;;;1.65;;
24034;SDS011;12242;50.952;4.678;2022-09-03T14:25:54;4.00;;;1.65;;
24034;SDS011;12242;50.952;4.678;2022-09-03T14:28:28;3.03;;;1.70;;
24034;SDS011;12242;50.952;4.678;2022-09-03T14:33:52;3.03;;;1.30;;
24034;SDS011;12242;50.952;4.678;2022-09-03T14:44:35;3.63;;;2.10;;
24034;SDS011;12242;50.952;4.678;2022-09-03T14:56:00;4.78;;;1.83;;
24034;SDS011;12242;50.952;4.678;2022-09-03T14:59:12;3.90;;;2.10;;
24034;SDS011;12242;50.952;4.678;2022-09-03T15:02:05;3.63;;;1.75;;
24034;SDS011;12242;50.952;4.678;2022-09-03T15:07:32;3.80;;;2.08;;
24034;SDS011;12242;50.952;4.678;2022-09-03T15:13:11;3.30;;;1.90;;
24034;SDS011;12242;50.952;4.678;2022-09-03T15:26:55;5.28;;;2.25;;
24034;SDS011;12242;50.952;4.678;2022-09-03T15:33:18;5.13;;;2.30;;
24034;SDS011;12242;50.952;4.678;2022-09-03T15:36:32;4.50;;;2.42;;
24034;SDS011;12242;50.952;4.678;2022-09-03T15:39:02;4.20;;;2.45;;
24034;SDS011;12242;50.952;4.678;2022-09-03T15:41:38;5.70;;;3.00;;
24034;SDS011;12242;50.952;4.678;2022-09-03T15:44:11;4.88;;;2.47;;
24034;SDS011;12242;50.952;4.678;2022-09-03T15:46:58;5.93;;;2.63;;
24034;SDS011;12242;50.952;4.678;2022-09-03T15:55:35;4.50;;;2.72;;
24034;SDS011;12242;50.952;4.678;2022-09-03T16:01:21;4.43;;;2.17;;
24034;SDS011;12242;50.952;4.678;2022-09-03T16:06:52;3.33;;;2.13;;
24034;SDS011;12242;50.952;4.678;2022-09-03T16:09:37;5.27;;;2.70;;
24034;SDS011;12242;50.952;4.678;2022-09-03T16:15:42;3.67;;;2.13;;
24034;SDS011;12242;50.952;4.678;2022-09-03T16:18:21;5.28;;;2.42;;
24034;SDS011;12242;50.952;4.678;2022-09-03T16:20:58;4.05;;;2.17;;
24034;SDS011;12242;50.952;4.678;2022-09-03T16:29:07;4.10;;;2.22;;
24034;SDS011;12242;50.952;4.678;2022-09-03T16:34:56;5.60;;;2.50;;
24034;SDS011;12242;50.952;4.678;2022-09-03T16:40:13;4.32;;;2.33;;
24034;SDS011;12242;50.952;4.678;2022-09-03T16:42:56;5.70;;;2.20;;
24034;SDS011;12242;50.952;4.678;2022-09-03T16:46:03;4.13;;;2.00;;
24034;SDS011;12242;50.952;4.678;2022-09-03T16:49:02;4.00;;;1.95;;
24034;SDS011;12242;50.952;4.678;2022-09-03T16:54:50;2.15;;;1.10;;
24034;SDS011;12242;50.952;4.678;2022-09-03T17:00:42;1.92;;;1.10;;
24034;SDS011;12242;50.952;4.678;2022-09-03T17:03:21;2.15;;;1.20;;
24034;SDS011;12242;50.952;4.678;2022-09-03T17:12:13;1.90;;;0.60;;
24034;SDS011;12242;50.952;4.678;2022-09-03T17:17:43;1.58;;;0.70;;
24034;SDS011;12242;50.952;4.678;2022-09-03T17:28:56;1.63;;;0.98;;
24034;SDS011;12242;50.952;4.678;2022-09-03T17:54:09;4.18;;;1.45;;
24034;SDS011;12242;50.952;4.678;2022-09-03T18:02:19;5.68;;;1.65;;
24034;SDS011;12242;50.952;4.678;2022-09-03T18:05:24;3.20;;;1.20;;
24034;SDS011;12242;50.952;4.678;2022-09-03T18:08:06;2.78;;;1.58;;
24034;SDS011;12242;50.952;4.678;2022-09-03T18:14:00;4.45;;;1.50;;
24034;SDS011;12242;50.952;4.678;2022-09-03T18:16:27;2.42;;;1.40;;
24034;SDS011;12242;50.952;4.678;2022-09-03T18:19:00;5.38;;;1.30;;
24034;SDS011;12242;50.952;4.678;2022-09-03T18:21:35;2.80;;;1.40;;
24034;SDS011;12242;50.952;4.678;2022-09-03T18:27:46;4.28;;;1.60;;
24034;SDS011;12242;50.952;4.678;2022-09-03T18:30:38;2.53;;;1.23;;
24034;SDS011;12242;50.952;4.678;2022-09-03T18:33:24;3.45;;;1.50;;
24034;SDS011;12242;50.952;4.678;2022-09-03T18:36:11;3.95;;;1.60;;
24034;SDS011;12242;50.952;4.678;2022-09-03T18:39:02;3.85;;;1.33;;
24034;SDS011;12242;50.952;4.678;2022-09-03T18:45:50;2.95;;;1.48;;
24034;SDS011;12242;50.952;4.678;2022-09-03T18:49:25;3.72;;;1.70;;
24034;SDS011;12242;50.952;4.678;2022-09-03T18:52:26;2.78;;;1.30;;
24034;SDS011;12242;50.952;4.678;2022-09-03T18:55:41;4.10;;;1.53;;
24034;SDS011;12242;50.952;4.678;2022-09-03T18:58:51;2.78;;;1.50;;
24034;SDS011;12242;50.952;4.678;2022-09-03T19:01:44;16.15;;;1.85;;
24034;SDS011;12242;50.952;4.678;2022-09-03T19:07:22;5.05;;;1.95;;
24034;SDS011;12242;50.952;4.678;2022-09-03T19:10:27;3.80;;;1.75;;
24034;SDS011;12242;50.952;4.678;2022-09-03T19:13:39;4.72;;;1.90;;
24034;SDS011;12242;50.952;4.678;2022-09-03T19:20:04;6.97;;;1.85;;
24034;SDS011;12242;50.952;4.678;2022-09-03T19:23:01;3.80;;;1.70;;
24034;SDS011;12242;50.952;4.678;2022-09-03T19:25:48;4.15;;;1.90;;
24034;SDS011;12242;50.952;4.678;2022-09-03T19:28:39;3.90;;;1.50;;
24034;SDS011;12242;50.952;4.678;2022-09-03T19:31:38;3.33;;;1.80;;
24034;SDS011;12242;50.952;4.678;2022-09-03T19:37:59;3.47;;;1.90;;
24034;SDS011;12242;50.952;4.678;2022-09-03T19:44:06;3.43;;;1.60;;
24034;SDS011;12242;50.952;4.678;2022-09-03T19:47:11;3.13;;;1.58;;
24034;SDS011;12242;50.952;4.678;2022-09-03T19:53:12;2.72;;;1.52;;
24034;SDS011;12242;50.952;4.678;2022-09-03T19:56:02;3.25;;;1.63;;
24034;SDS011;12242;50.952;4.678;2022-09-03T19:58:54;3.78;;;1.67;;
24034;SDS011;12242;50.952;4.678;2022-09-03T20:01:42;3.42;;;1.70;;
24034;SDS011;12242;50.952;4.678;2022-09-03T20:04:40;4.63;;;1.63;;
24034;SDS011;12242;50.952;4.678;2022-09-03T20:07:30;5.28;;;1.55;;
24034;SDS011;12242;50.952;4.678;2022-09-03T20:10:21;4.00;;;1.75;;
24034;SDS011;12242;50.952;4.678;2022-09-03T20:18:58;3.30;;;1.70;;
24034;SDS011;12242;50.952;4.678;2022-09-03T20:27:10;4.30;;;2.00;;
24034;SDS011;12242;50.952;4.678;2022-09-03T20:40:39;4.63;;;2.47;;
24034;SDS011;12242;50.952;4.678;2022-09-03T20:49:22;4.75;;;2.33;;
24034;SDS011;12242;50.952;4.678;2022-09-03T20:52:02;3.90;;;2.00;;
24034;SDS011;12242;50.952;4.678;2022-09-03T20:54:36;5.97;;;2.25;;
24034;SDS011;12242;50.952;4.678;2022-09-03T20:57:59;4.22;;;1.83;;
24034;SDS011;12242;50.952;4.678;2022-09-03T21:00:21;4.57;;;2.10;;
24034;SDS011;12242;50.952;4.678;2022-09-03T21:03:03;4.25;;;2.03;;
24034;SDS011;12242;50.952;4.678;2022-09-03T21:08:13;4.88;;;2.13;;
24034;SDS011;12242;50.952;4.678;2022-09-03T21:10:57;4.25;;;2.25;;